Flight Track Log - Related Links

Times and Time Zones

All times are in EDT time to prevent confusion due to time zone crossing. See the N895SC flight status page for this flight to view local times or setup timezone preferences in your user account.

Time Position Orientation Groundspeed Altitude Reporting Facility
EDT Latitude Longitude Course Direction KTS MPH feet Rate Location/Type
Sun 11:38:47 PM 24.5608 -81.7175 83° East 142 163 900  Level Miami Center
Sun 11:39:49 PM 24.5642 -81.6858 83° East 112 129 1,600 645 Climbing Miami Center
Sun 11:40:48 PM 24.5758 -81.6475 71° East 107 123 2,200 250 Climbing Miami Center
Sun 11:41:49 PM 24.6158 -81.6375 13° North 118 136 2,100 -50 Descending Miami Center
Sun 11:42:49 PM 24.6636 -81.6439 353° North 131 151 2,100 101 Level Miami Center
Sun 11:43:48 PM 24.7133 -81.6528 351° North 162 186 2,300 151 Climbing Miami Center
Sun 11:44:48 PM 24.7675 -81.6547 358° North 178 205 2,400 252 Climbing Miami Center
Sun 11:45:47 PM 24.8197 -81.6592 356° North 184 212 2,800 508 Climbing Miami Center
Sun 11:46:46 PM 24.8678 -81.6586 North 178 205 3,400 893 Climbing Miami Center
Sun 11:47:48 PM 24.9092 -81.6647 352° North 167 192 4,600 992 Climbing Miami Center
Sun 11:48:47 PM 24.9531 -81.6689 355° North 156 180 5,400 800 Climbing Miami Center
Sun 11:49:48 PM 24.9925 -81.6772 349° North 150 173 6,200 787 Climbing Miami Center
Sun 11:50:49 PM 25.0297 -81.6833 352° North 140 161 7,000 545 Climbing Miami Center
Sun 11:51:49 PM 25.0714 -81.6872 355° North 140 161 7,300 101 Climbing Miami Center
Sun 11:52:48 PM 25.1214 -81.6892 358° North 151 174 7,200 -102 Descending Miami Center
Sun 11:53:47 PM 25.1736 -81.6936 356° North 172 198 7,100  Descending Miami Center
Sun 11:54:49 PM 25.2256 -81.7003 353° North 183 211 7,200  Climbing Miami Center
Sun 11:55:46 PM 25.2817 -81.7047 356° North 183 211 7,100 -51 Descending Miami Center
Sun 11:56:46 PM 25.3339 -81.7114 353° North 188 216 7,100  Level Miami Center
Sun 11:57:47 PM 25.3858 -81.7158 356° North 188 216 7,100 -49 Level Miami Center
Sun 11:58:48 PM 25.4381 -81.7178 358° North 188 216 7,000  Descending Miami Center
Sun 11:59:48 PM 25.4900 -81.7244 353° North 188 216 7,100 50 Climbing Miami Center
Mon 12:00:49 AM 25.5419 -81.7314 353° North 188 216 7,100  Level Miami Center
Mon 12:01:46 AM 25.5939 -81.7356 356° North 188 216 7,100 -250 Level Miami Center
Mon 12:02:49 AM 25.6458 -81.7447 351° North 188 216 6,600 -492 Descending Miami Center
Mon 12:03:48 AM 25.6936 -81.7536 350° North 193 222 6,100 -600 Descending Miami Center
Mon 12:04:49 AM 25.7539 -81.7653 350° North 193 222 5,400 -650 Descending Miami Center
Mon 12:05:48 AM 25.8078 -81.7719 354° North 198 228 4,800 -610 Descending Miami Center
Mon 12:06:47 AM 25.8661 -81.7792 354° North 198 228 4,200 -605 Descending Miami Center
Mon 12:07:47 AM 25.9222 -81.7883 352° North 198 228 3,600 -600 Descending Miami Center

Login

Don't have an account? Register now (free) for customized features, flight alerts, and more!